sensor_id;sensor_type;location;lat;lon;timestamp;P1;durP1;ratioP1;P2;durP2;ratioP2
5819;SDS011;2936;47.348;9.640;2022-12-11T00:02:22;50.45;;;26.90;;
5819;SDS011;2936;47.348;9.640;2022-12-11T00:04:49;54.55;;;28.13;;
5819;SDS011;2936;47.348;9.640;2022-12-11T00:07:17;51.58;;;27.52;;
5819;SDS011;2936;47.348;9.640;2022-12-11T00:09:45;48.70;;;26.23;;
5819;SDS011;2936;47.348;9.640;2022-12-11T00:12:13;54.17;;;27.55;;
5819;SDS011;2936;47.348;9.640;2022-12-11T00:14:40;44.80;;;25.85;;
5819;SDS011;2936;47.348;9.640;2022-12-11T00:17:08;56.08;;;28.75;;
5819;SDS011;2936;47.348;9.640;2022-12-11T00:19:35;57.03;;;29.08;;
5819;SDS011;2936;47.348;9.640;2022-12-11T00:22:02;53.58;;;27.38;;
5819;SDS011;2936;47.348;9.640;2022-12-11T00:24:30;54.85;;;27.23;;
5819;SDS011;2936;47.348;9.640;2022-12-11T00:26:58;53.70;;;27.50;;
5819;SDS011;2936;47.348;9.640;2022-12-11T00:29:26;52.55;;;27.70;;
5819;SDS011;2936;47.348;9.640;2022-12-11T00:31:53;48.25;;;27.40;;
5819;SDS011;2936;47.348;9.640;2022-12-11T00:34:20;49.17;;;27.85;;
5819;SDS011;2936;47.348;9.640;2022-12-11T00:36:48;48.30;;;26.95;;
5819;SDS011;2936;47.348;9.640;2022-12-11T00:39:15;53.40;;;28.80;;
5819;SDS011;2936;47.348;9.640;2022-12-11T00:41:42;58.47;;;28.40;;
5819;SDS011;2936;47.348;9.640;2022-12-11T00:44:11;60.30;;;30.80;;
5819;SDS011;2936;47.348;9.640;2022-12-11T00:46:39;51.85;;;27.90;;
5819;SDS011;2936;47.348;9.640;2022-12-11T00:49:06;54.38;;;28.83;;
5819;SDS011;2936;47.348;9.640;2022-12-11T00:51:34;57.42;;;30.08;;
5819;SDS011;2936;47.348;9.640;2022-12-11T00:54:02;51.55;;;28.00;;
5819;SDS011;2936;47.348;9.640;2022-12-11T00:56:30;62.92;;;30.92;;
5819;SDS011;2936;47.348;9.640;2022-12-11T00:58:57;52.22;;;28.48;;
5819;SDS011;2936;47.348;9.640;2022-12-11T01:01:26;60.22;;;27.98;;
5819;SDS011;2936;47.348;9.640;2022-12-11T01:03:53;54.03;;;31.83;;
5819;SDS011;2936;47.348;9.640;2022-12-11T01:06:22;63.10;;;29.50;;
5819;SDS011;2936;47.348;9.640;2022-12-11T01:08:49;59.22;;;29.63;;
5819;SDS011;2936;47.348;9.640;2022-12-11T01:11:38;55.28;;;29.38;;
5819;SDS011;2936;47.348;9.640;2022-12-11T01:14:05;54.47;;;29.02;;
5819;SDS011;2936;47.348;9.640;2022-12-11T01:16:34;59.38;;;29.55;;
5819;SDS011;2936;47.348;9.640;2022-12-11T01:19:02;62.28;;;30.75;;
5819;SDS011;2936;47.348;9.640;2022-12-11T01:21:29;56.78;;;28.90;;
5819;SDS011;2936;47.348;9.640;2022-12-11T01:23:57;52.70;;;27.05;;
5819;SDS011;2936;47.348;9.640;2022-12-11T01:26:25;52.92;;;27.83;;
5819;SDS011;2936;47.348;9.640;2022-12-11T01:28:53;54.78;;;28.52;;
5819;SDS011;2936;47.348;9.640;2022-12-11T01:31:20;55.55;;;29.55;;
5819;SDS011;2936;47.348;9.640;2022-12-11T01:33:49;52.25;;;27.23;;
5819;SDS011;2936;47.348;9.640;2022-12-11T01:36:20;56.05;;;28.00;;
5819;SDS011;2936;47.348;9.640;2022-12-11T01:38:48;56.85;;;26.70;;
5819;SDS011;2936;47.348;9.640;2022-12-11T01:41:16;53.20;;;27.95;;
5819;SDS011;2936;47.348;9.640;2022-12-11T01:44:00;52.83;;;25.83;;
5819;SDS011;2936;47.348;9.640;2022-12-11T01:46:28;48.72;;;24.67;;
5819;SDS011;2936;47.348;9.640;2022-12-11T01:48:57;47.67;;;25.00;;
5819;SDS011;2936;47.348;9.640;2022-12-11T01:51:25;55.45;;;26.92;;
5819;SDS011;2936;47.348;9.640;2022-12-11T01:53:53;48.65;;;25.20;;
5819;SDS011;2936;47.348;9.640;2022-12-11T01:56:22;54.95;;;26.67;;
5819;SDS011;2936;47.348;9.640;2022-12-11T01:58:51;59.53;;;28.20;;
5819;SDS011;2936;47.348;9.640;2022-12-11T02:01:21;53.92;;;25.60;;
5819;SDS011;2936;47.348;9.640;2022-12-11T02:03:51;49.63;;;26.80;;
5819;SDS011;2936;47.348;9.640;2022-12-11T02:06:29;54.55;;;27.08;;
5819;SDS011;2936;47.348;9.640;2022-12-11T02:08:57;51.75;;;24.95;;
5819;SDS011;2936;47.348;9.640;2022-12-11T02:11:25;48.17;;;25.73;;
5819;SDS011;2936;47.348;9.640;2022-12-11T02:13:56;53.47;;;27.05;;
5819;SDS011;2936;47.348;9.640;2022-12-11T02:16:28;49.08;;;26.65;;
5819;SDS011;2936;47.348;9.640;2022-12-11T02:18:57;66.38;;;30.05;;
5819;SDS011;2936;47.348;9.640;2022-12-11T02:21:27;58.85;;;28.50;;
5819;SDS011;2936;47.348;9.640;2022-12-11T02:24:02;54.20;;;27.90;;
5819;SDS011;2936;47.348;9.640;2022-12-11T02:26:36;51.90;;;25.48;;
5819;SDS011;2936;47.348;9.640;2022-12-11T02:29:14;58.95;;;27.02;;
5819;SDS011;2936;47.348;9.640;2022-12-11T02:31:45;47.25;;;25.60;;
5819;SDS011;2936;47.348;9.640;2022-12-11T02:34:15;47.35;;;25.10;;
5819;SDS011;2936;47.348;9.640;2022-12-11T02:36:45;50.05;;;25.83;;
5819;SDS011;2936;47.348;9.640;2022-12-11T02:39:15;49.55;;;25.42;;
5819;SDS011;2936;47.348;9.640;2022-12-11T02:41:45;49.28;;;27.23;;
5819;SDS011;2936;47.348;9.640;2022-12-11T02:44:16;51.22;;;27.85;;
5819;SDS011;2936;47.348;9.640;2022-12-11T02:46:45;48.38;;;25.05;;
5819;SDS011;2936;47.348;9.640;2022-12-11T02:49:12;50.95;;;26.98;;
5819;SDS011;2936;47.348;9.640;2022-12-11T02:51:40;48.92;;;25.92;;
5819;SDS011;2936;47.348;9.640;2022-12-11T02:54:09;46.30;;;24.60;;
5819;SDS011;2936;47.348;9.640;2022-12-11T02:56:39;48.50;;;26.00;;
5819;SDS011;2936;47.348;9.640;2022-12-11T02:59:09;50.83;;;25.38;;
5819;SDS011;2936;47.348;9.640;2022-12-11T03:01:41;50.08;;;27.05;;
5819;SDS011;2936;47.348;9.640;2022-12-11T03:04:08;47.08;;;25.23;;
5819;SDS011;2936;47.348;9.640;2022-12-11T03:06:36;48.08;;;24.63;;
5819;SDS011;2936;47.348;9.640;2022-12-11T03:09:08;55.67;;;26.30;;
5819;SDS011;2936;47.348;9.640;2022-12-11T03:11:36;58.67;;;26.92;;
5819;SDS011;2936;47.348;9.640;2022-12-11T03:14:03;55.38;;;26.90;;
5819;SDS011;2936;47.348;9.640;2022-12-11T03:16:34;55.65;;;25.83;;
5819;SDS011;2936;47.348;9.640;2022-12-11T03:19:08;45.65;;;25.52;;
5819;SDS011;2936;47.348;9.640;2022-12-11T03:21:39;50.88;;;25.15;;
5819;SDS011;2936;47.348;9.640;2022-12-11T03:24:11;47.53;;;25.92;;
5819;SDS011;2936;47.348;9.640;2022-12-11T03:26:42;46.38;;;26.40;;
5819;SDS011;2936;47.348;9.640;2022-12-11T03:29:13;49.45;;;24.45;;
5819;SDS011;2936;47.348;9.640;2022-12-11T03:31:42;51.75;;;25.10;;
5819;SDS011;2936;47.348;9.640;2022-12-11T03:34:13;48.35;;;24.60;;
5819;SDS011;2936;47.348;9.640;2022-12-11T03:36:42;68.25;;;28.75;;
5819;SDS011;2936;47.348;9.640;2022-12-11T03:39:10;53.28;;;26.42;;
5819;SDS011;2936;47.348;9.640;2022-12-11T03:41:39;46.60;;;22.95;;
5819;SDS011;2936;47.348;9.640;2022-12-11T03:44:07;44.35;;;22.70;;
5819;SDS011;2936;47.348;9.640;2022-12-11T03:46:35;46.75;;;24.73;;
5819;SDS011;2936;47.348;9.640;2022-12-11T03:49:04;46.38;;;24.00;;
5819;SDS011;2936;47.348;9.640;2022-12-11T03:51:34;48.15;;;25.13;;
5819;SDS011;2936;47.348;9.640;2022-12-11T03:54:02;50.70;;;24.67;;
5819;SDS011;2936;47.348;9.640;2022-12-11T03:56:30;50.40;;;25.77;;
5819;SDS011;2936;47.348;9.640;2022-12-11T03:58:58;56.80;;;25.85;;
5819;SDS011;2936;47.348;9.640;2022-12-11T04:01:26;49.47;;;26.50;;
5819;SDS011;2936;47.348;9.640;2022-12-11T04:03:53;49.65;;;25.75;;
5819;SDS011;2936;47.348;9.640;2022-12-11T04:06:21;48.40;;;25.83;;
5819;SDS011;2936;47.348;9.640;2022-12-11T04:08:49;50.42;;;25.70;;
5819;SDS011;2936;47.348;9.640;2022-12-11T04:11:17;53.47;;;27.05;;
5819;SDS011;2936;47.348;9.640;2022-12-11T04:13:59;57.25;;;27.83;;
5819;SDS011;2936;47.348;9.640;2022-12-11T04:16:44;54.55;;;25.13;;
5819;SDS011;2936;47.348;9.640;2022-12-11T04:19:11;50.30;;;26.70;;
5819;SDS011;2936;47.348;9.640;2022-12-11T04:21:56;52.25;;;26.15;;
5819;SDS011;2936;47.348;9.640;2022-12-11T04:24:54;52.33;;;25.23;;
5819;SDS011;2936;47.348;9.640;2022-12-11T04:27:21;50.35;;;24.25;;
5819;SDS011;2936;47.348;9.640;2022-12-11T04:30:08;51.35;;;25.10;;
5819;SDS011;2936;47.348;9.640;2022-12-11T04:32:36;44.05;;;24.58;;
5819;SDS011;2936;47.348;9.640;2022-12-11T04:35:04;56.08;;;28.60;;
5819;SDS011;2936;47.348;9.640;2022-12-11T04:37:32;48.10;;;25.52;;
5819;SDS011;2936;47.348;9.640;2022-12-11T04:40:01;45.65;;;23.45;;
5819;SDS011;2936;47.348;9.640;2022-12-11T04:42:29;43.38;;;23.00;;
5819;SDS011;2936;47.348;9.640;2022-12-11T04:44:56;47.63;;;23.60;;
5819;SDS011;2936;47.348;9.640;2022-12-11T04:47:23;45.38;;;23.48;;
5819;SDS011;2936;47.348;9.640;2022-12-11T04:49:51;43.80;;;24.08;;
5819;SDS011;2936;47.348;9.640;2022-12-11T04:52:19;42.78;;;22.30;;
5819;SDS011;2936;47.348;9.640;2022-12-11T04:54:46;46.55;;;23.02;;
5819;SDS011;2936;47.348;9.640;2022-12-11T04:57:15;47.60;;;22.77;;
5819;SDS011;2936;47.348;9.640;2022-12-11T04:59:42;42.03;;;21.17;;
5819;SDS011;2936;47.348;9.640;2022-12-11T05:02:09;43.92;;;22.42;;
5819;SDS011;2936;47.348;9.640;2022-12-11T05:04:37;43.90;;;22.15;;
5819;SDS011;2936;47.348;9.640;2022-12-11T05:07:04;42.33;;;22.55;;
5819;SDS011;2936;47.348;9.640;2022-12-11T05:09:31;47.58;;;23.60;;
5819;SDS011;2936;47.348;9.640;2022-12-11T05:11:58;45.15;;;22.70;;
5819;SDS011;2936;47.348;9.640;2022-12-11T05:14:27;51.75;;;25.05;;
5819;SDS011;2936;47.348;9.640;2022-12-11T05:16:56;51.95;;;24.83;;
5819;SDS011;2936;47.348;9.640;2022-12-11T05:19:23;51.28;;;24.73;;
5819;SDS011;2936;47.348;9.640;2022-12-11T05:21:51;54.08;;;26.05;;
5819;SDS011;2936;47.348;9.640;2022-12-11T05:24:18;54.75;;;26.85;;
5819;SDS011;2936;47.348;9.640;2022-12-11T05:26:45;52.22;;;26.15;;
5819;SDS011;2936;47.348;9.640;2022-12-11T05:29:13;52.10;;;26.05;;
5819;SDS011;2936;47.348;9.640;2022-12-11T05:31:41;52.55;;;26.67;;
5819;SDS011;2936;47.348;9.640;2022-12-11T05:34:09;63.38;;;27.65;;
5819;SDS011;2936;47.348;9.640;2022-12-11T05:36:36;53.05;;;27.48;;
5819;SDS011;2936;47.348;9.640;2022-12-11T05:39:04;46.95;;;24.90;;
5819;SDS011;2936;47.348;9.640;2022-12-11T05:41:31;48.10;;;25.38;;
5819;SDS011;2936;47.348;9.640;2022-12-11T05:43:58;49.97;;;26.98;;
5819;SDS011;2936;47.348;9.640;2022-12-11T05:46:27;50.80;;;26.02;;
5819;SDS011;2936;47.348;9.640;2022-12-11T05:48:57;51.33;;;27.17;;
5819;SDS011;2936;47.348;9.640;2022-12-11T05:51:24;49.35;;;26.20;;
5819;SDS011;2936;47.348;9.640;2022-12-11T05:53:52;53.58;;;27.20;;
5819;SDS011;2936;47.348;9.640;2022-12-11T05:56:20;66.75;;;25.55;;
5819;SDS011;2936;47.348;9.640;2022-12-11T05:58:48;49.58;;;26.50;;
5819;SDS011;2936;47.348;9.640;2022-12-11T06:01:17;49.00;;;22.75;;
5819;SDS011;2936;47.348;9.640;2022-12-11T06:03:44;49.13;;;25.63;;
5819;SDS011;2936;47.348;9.640;2022-12-11T06:06:13;46.88;;;22.80;;
5819;SDS011;2936;47.348;9.640;2022-12-11T06:08:40;47.60;;;24.75;;
5819;SDS011;2936;47.348;9.640;2022-12-11T06:11:08;48.70;;;24.40;;
5819;SDS011;2936;47.348;9.640;2022-12-11T06:13:35;44.70;;;23.20;;
5819;SDS011;2936;47.348;9.640;2022-12-11T06:16:03;38.60;;;21.02;;
5819;SDS011;2936;47.348;9.640;2022-12-11T06:18:33;43.42;;;19.42;;
5819;SDS011;2936;47.348;9.640;2022-12-11T06:21:01;33.15;;;18.15;;
5819;SDS011;2936;47.348;9.640;2022-12-11T06:23:30;39.85;;;21.48;;
5819;SDS011;2936;47.348;9.640;2022-12-11T06:25:57;40.17;;;20.60;;
5819;SDS011;2936;47.348;9.640;2022-12-11T06:28:24;45.40;;;22.58;;
5819;SDS011;2936;47.348;9.640;2022-12-11T06:30:52;45.38;;;21.70;;
5819;SDS011;2936;47.348;9.640;2022-12-11T06:33:19;46.25;;;23.27;;
5819;SDS011;2936;47.348;9.640;2022-12-11T06:35:46;43.53;;;22.27;;
5819;SDS011;2936;47.348;9.640;2022-12-11T06:38:13;48.38;;;25.33;;
5819;SDS011;2936;47.348;9.640;2022-12-11T06:40:42;46.55;;;24.05;;
5819;SDS011;2936;47.348;9.640;2022-12-11T06:43:10;49.08;;;25.17;;
5819;SDS011;2936;47.348;9.640;2022-12-11T06:45:37;45.33;;;24.05;;
5819;SDS011;2936;47.348;9.640;2022-12-11T06:48:05;49.10;;;23.98;;
5819;SDS011;2936;47.348;9.640;2022-12-11T06:50:32;42.60;;;23.27;;
5819;SDS011;2936;47.348;9.640;2022-12-11T06:52:59;45.03;;;23.85;;
5819;SDS011;2936;47.348;9.640;2022-12-11T06:55:27;44.85;;;22.80;;
5819;SDS011;2936;47.348;9.640;2022-12-11T06:57:55;45.05;;;23.60;;
5819;SDS011;2936;47.348;9.640;2022-12-11T07:00:22;51.60;;;22.92;;
5819;SDS011;2936;47.348;9.640;2022-12-11T07:02:50;40.63;;;20.90;;
5819;SDS011;2936;47.348;9.640;2022-12-11T07:05:17;37.25;;;20.48;;
5819;SDS011;2936;47.348;9.640;2022-12-11T07:07:44;36.30;;;19.23;;
5819;SDS011;2936;47.348;9.640;2022-12-11T07:10:12;34.00;;;19.75;;
5819;SDS011;2936;47.348;9.640;2022-12-11T07:12:39;37.17;;;20.45;;
5819;SDS011;2936;47.348;9.640;2022-12-11T07:15:08;36.00;;;19.90;;
5819;SDS011;2936;47.348;9.640;2022-12-11T07:17:35;32.88;;;19.08;;
5819;SDS011;2936;47.348;9.640;2022-12-11T07:20:03;45.88;;;23.30;;
5819;SDS011;2936;47.348;9.640;2022-12-11T07:22:31;36.65;;;19.52;;
5819;SDS011;2936;47.348;9.640;2022-12-11T07:24:58;38.17;;;19.35;;
5819;SDS011;2936;47.348;9.640;2022-12-11T07:27:25;37.72;;;19.13;;
5819;SDS011;2936;47.348;9.640;2022-12-11T07:29:53;32.80;;;18.25;;
5819;SDS011;2936;47.348;9.640;2022-12-11T07:32:21;36.95;;;20.42;;
5819;SDS011;2936;47.348;9.640;2022-12-11T07:34:49;37.47;;;18.75;;
5819;SDS011;2936;47.348;9.640;2022-12-11T07:37:16;39.50;;;19.65;;
5819;SDS011;2936;47.348;9.640;2022-12-11T07:39:43;36.67;;;20.20;;
5819;SDS011;2936;47.348;9.640;2022-12-11T07:42:13;32.13;;;18.77;;
5819;SDS011;2936;47.348;9.640;2022-12-11T07:44:40;28.98;;;17.33;;
5819;SDS011;2936;47.348;9.640;2022-12-11T07:47:07;29.80;;;18.15;;
5819;SDS011;2936;47.348;9.640;2022-12-11T07:49:36;29.58;;;16.48;;
5819;SDS011;2936;47.348;9.640;2022-12-11T07:52:03;27.52;;;16.92;;
5819;SDS011;2936;47.348;9.640;2022-12-11T07:54:31;27.00;;;17.10;;
5819;SDS011;2936;47.348;9.640;2022-12-11T07:56:58;27.23;;;16.45;;
5819;SDS011;2936;47.348;9.640;2022-12-11T07:59:25;27.30;;;16.50;;
5819;SDS011;2936;47.348;9.640;2022-12-11T08:01:53;36.75;;;19.27;;
5819;SDS011;2936;47.348;9.640;2022-12-11T08:04:20;29.45;;;16.83;;
5819;SDS011;2936;47.348;9.640;2022-12-11T08:06:49;26.45;;;16.88;;
5819;SDS011;2936;47.348;9.640;2022-12-11T08:09:16;32.25;;;17.17;;
5819;SDS011;2936;47.348;9.640;2022-12-11T08:11:46;32.72;;;17.77;;
5819;SDS011;2936;47.348;9.640;2022-12-11T08:14:14;33.03;;;19.88;;
5819;SDS011;2936;47.348;9.640;2022-12-11T08:16:42;36.60;;;22.40;;
5819;SDS011;2936;47.348;9.640;2022-12-11T08:19:09;40.42;;;23.88;;
5819;SDS011;2936;47.348;9.640;2022-12-11T08:21:37;41.95;;;24.27;;
5819;SDS011;2936;47.348;9.640;2022-12-11T08:24:06;38.20;;;21.98;;
5819;SDS011;2936;47.348;9.640;2022-12-11T08:26:34;40.80;;;23.35;;
5819;SDS011;2936;47.348;9.640;2022-12-11T08:29:01;46.67;;;28.58;;
5819;SDS011;2936;47.348;9.640;2022-12-11T08:31:29;47.30;;;25.38;;
5819;SDS011;2936;47.348;9.640;2022-12-11T08:33:57;44.40;;;22.55;;
5819;SDS011;2936;47.348;9.640;2022-12-11T08:36:24;39.03;;;23.02;;
5819;SDS011;2936;47.348;9.640;2022-12-11T08:38:52;46.83;;;22.90;;
5819;SDS011;2936;47.348;9.640;2022-12-11T08:41:22;41.83;;;23.27;;
5819;SDS011;2936;47.348;9.640;2022-12-11T08:43:50;40.50;;;22.95;;
5819;SDS011;2936;47.348;9.640;2022-12-11T08:46:19;41.17;;;23.55;;
5819;SDS011;2936;47.348;9.640;2022-12-11T08:48:47;47.17;;;24.65;;
5819;SDS011;2936;47.348;9.640;2022-12-11T08:51:15;41.33;;;23.67;;
5819;SDS011;2936;47.348;9.640;2022-12-11T08:53:44;37.80;;;22.80;;
5819;SDS011;2936;47.348;9.640;2022-12-11T08:56:13;40.13;;;21.95;;
5819;SDS011;2936;47.348;9.640;2022-12-11T08:58:42;46.85;;;25.80;;
5819;SDS011;2936;47.348;9.640;2022-12-11T09:01:10;47.00;;;25.17;;
5819;SDS011;2936;47.348;9.640;2022-12-11T09:03:38;40.45;;;24.60;;
5819;SDS011;2936;47.348;9.640;2022-12-11T09:06:06;51.25;;;27.02;;
5819;SDS011;2936;47.348;9.640;2022-12-11T09:08:34;54.88;;;27.73;;
5819;SDS011;2936;47.348;9.640;2022-12-11T09:11:02;49.60;;;27.85;;
5819;SDS011;2936;47.348;9.640;2022-12-11T09:13:30;53.10;;;27.58;;
5819;SDS011;2936;47.348;9.640;2022-12-11T09:15:59;55.78;;;28.52;;
5819;SDS011;2936;47.348;9.640;2022-12-11T09:18:26;52.42;;;28.95;;
5819;SDS011;2936;47.348;9.640;2022-12-11T09:20:57;48.55;;;25.17;;
5819;SDS011;2936;47.348;9.640;2022-12-11T09:23:24;47.40;;;25.90;;
5819;SDS011;2936;47.348;9.640;2022-12-11T09:25:52;43.92;;;23.33;;
5819;SDS011;2936;47.348;9.640;2022-12-11T09:28:21;47.03;;;25.92;;
5819;SDS011;2936;47.348;9.640;2022-12-11T09:30:48;41.85;;;22.98;;
5819;SDS011;2936;47.348;9.640;2022-12-11T09:33:17;37.95;;;22.15;;
5819;SDS011;2936;47.348;9.640;2022-12-11T09:35:44;39.83;;;20.20;;
5819;SDS011;2936;47.348;9.640;2022-12-11T09:38:12;38.00;;;20.77;;
5819;SDS011;2936;47.348;9.640;2022-12-11T09:40:41;35.35;;;20.60;;
5819;SDS011;2936;47.348;9.640;2022-12-11T09:43:13;33.75;;;18.20;;
5819;SDS011;2936;47.348;9.640;2022-12-11T09:45:45;32.53;;;18.63;;
5819;SDS011;2936;47.348;9.640;2022-12-11T09:48:14;38.63;;;22.50;;
5819;SDS011;2936;47.348;9.640;2022-12-11T09:50:47;34.90;;;18.92;;
5819;SDS011;2936;47.348;9.640;2022-12-11T09:53:15;38.20;;;19.90;;
5819;SDS011;2936;47.348;9.640;2022-12-11T09:55:47;32.28;;;19.20;;
5819;SDS011;2936;47.348;9.640;2022-12-11T09:58:17;30.15;;;17.90;;
5819;SDS011;2936;47.348;9.640;2022-12-11T10:00:50;34.45;;;18.95;;
5819;SDS011;2936;47.348;9.640;2022-12-11T10:06:11;25.90;;;16.60;;
5819;SDS011;2936;47.348;9.640;2022-12-11T10:08:43;28.88;;;17.83;;
5819;SDS011;2936;47.348;9.640;2022-12-11T10:11:21;30.30;;;16.75;;
5819;SDS011;2936;47.348;9.640;2022-12-11T10:13:56;27.50;;;16.75;;
5819;SDS011;2936;47.348;9.640;2022-12-11T10:16:28;26.60;;;16.10;;
5819;SDS011;2936;47.348;9.640;2022-12-11T10:18:59;28.17;;;17.77;;
5819;SDS011;2936;47.348;9.640;2022-12-11T10:21:29;32.80;;;17.25;;
5819;SDS011;2936;47.348;9.640;2022-12-11T10:24:00;30.48;;;17.98;;
5819;SDS011;2936;47.348;9.640;2022-12-11T10:26:29;28.23;;;15.70;;
5819;SDS011;2936;47.348;9.640;2022-12-11T10:28:57;33.30;;;17.15;;
5819;SDS011;2936;47.348;9.640;2022-12-11T10:31:26;25.95;;;16.63;;
5819;SDS011;2936;47.348;9.640;2022-12-11T10:33:58;28.30;;;15.48;;
5819;SDS011;2936;47.348;9.640;2022-12-11T10:36:26;23.27;;;16.30;;
5819;SDS011;2936;47.348;9.640;2022-12-11T10:38:56;25.77;;;16.02;;
5819;SDS011;2936;47.348;9.640;2022-12-11T10:41:25;26.05;;;16.42;;
5819;SDS011;2936;47.348;9.640;2022-12-11T10:43:56;26.88;;;16.52;;
5819;SDS011;2936;47.348;9.640;2022-12-11T10:46:27;25.10;;;15.25;;
5819;SDS011;2936;47.348;9.640;2022-12-11T10:48:57;24.67;;;15.85;;
5819;SDS011;2936;47.348;9.640;2022-12-11T10:51:34;25.35;;;15.45;;
5819;SDS011;2936;47.348;9.640;2022-12-11T10:54:04;28.63;;;16.45;;
5819;SDS011;2936;47.348;9.640;2022-12-11T10:56:32;27.55;;;14.68;;
5819;SDS011;2936;47.348;9.640;2022-12-11T10:59:00;27.23;;;15.50;;
5819;SDS011;2936;47.348;9.640;2022-12-11T11:01:28;30.77;;;17.25;;
5819;SDS011;2936;47.348;9.640;2022-12-11T11:03:56;25.65;;;16.00;;
5819;SDS011;2936;47.348;9.640;2022-12-11T11:06:25;23.20;;;15.82;;
5819;SDS011;2936;47.348;9.640;2022-12-11T11:08:54;28.92;;;16.23;;
5819;SDS011;2936;47.348;9.640;2022-12-11T11:11:27;27.20;;;16.65;;
5819;SDS011;2936;47.348;9.640;2022-12-11T11:52:20;23.30;;;16.85;;
5819;SDS011;2936;47.348;9.640;2022-12-11T11:54:51;21.58;;;14.88;;
5819;SDS011;2936;47.348;9.640;2022-12-11T11:57:23;27.38;;;17.52;;
5819;SDS011;2936;47.348;9.640;2022-12-11T11:59:55;23.73;;;14.55;;
5819;SDS011;2936;47.348;9.640;2022-12-11T12:02:24;24.90;;;15.95;;
5819;SDS011;2936;47.348;9.640;2022-12-11T12:04:51;22.40;;;15.30;;
5819;SDS011;2936;47.348;9.640;2022-12-11T12:07:35;20.95;;;14.05;;
5819;SDS011;2936;47.348;9.640;2022-12-11T12:10:07;22.80;;;14.00;;
5819;SDS011;2936;47.348;9.640;2022-12-11T12:12:42;21.05;;;13.35;;
5819;SDS011;2936;47.348;9.640;2022-12-11T12:15:14;23.77;;;15.00;;
5819;SDS011;2936;47.348;9.640;2022-12-11T12:17:47;21.52;;;14.43;;
5819;SDS011;2936;47.348;9.640;2022-12-11T12:20:17;21.83;;;14.07;;
5819;SDS011;2936;47.348;9.640;2022-12-11T12:22:50;21.13;;;13.82;;
5819;SDS011;2936;47.348;9.640;2022-12-11T12:25:21;22.05;;;14.40;;
5819;SDS011;2936;47.348;9.640;2022-12-11T12:27:51;21.48;;;14.27;;
5819;SDS011;2936;47.348;9.640;2022-12-11T12:30:20;22.08;;;13.45;;
5819;SDS011;2936;47.348;9.640;2022-12-11T12:32:50;25.77;;;14.98;;
5819;SDS011;2936;47.348;9.640;2022-12-11T12:35:24;21.17;;;13.68;;
5819;SDS011;2936;47.348;9.640;2022-12-11T12:37:56;27.63;;;13.88;;
5819;SDS011;2936;47.348;9.640;2022-12-11T12:40:26;20.10;;;12.82;;
5819;SDS011;2936;47.348;9.640;2022-12-11T12:42:59;21.45;;;13.98;;
5819;SDS011;2936;47.348;9.640;2022-12-11T12:45:31;21.52;;;12.05;;
5819;SDS011;2936;47.348;9.640;2022-12-11T12:48:00;23.45;;;12.95;;
5819;SDS011;2936;47.348;9.640;2022-12-11T12:50:29;21.92;;;13.82;;
5819;SDS011;2936;47.348;9.640;2022-12-11T12:53:00;19.92;;;13.48;;
5819;SDS011;2936;47.348;9.640;2022-12-11T12:55:27;18.85;;;13.10;;
5819;SDS011;2936;47.348;9.640;2022-12-11T12:57:56;20.52;;;12.60;;
5819;SDS011;2936;47.348;9.640;2022-12-11T13:00:25;22.27;;;13.52;;
5819;SDS011;2936;47.348;9.640;2022-12-11T13:02:53;21.75;;;13.30;;
5819;SDS011;2936;47.348;9.640;2022-12-11T13:05:21;16.92;;;11.30;;
5819;SDS011;2936;47.348;9.640;2022-12-11T13:07:51;13.23;;;10.27;;
5819;SDS011;2936;47.348;9.640;2022-12-11T13:10:25;19.63;;;13.85;;
5819;SDS011;2936;47.348;9.640;2022-12-11T13:12:56;18.08;;;11.98;;
5819;SDS011;2936;47.348;9.640;2022-12-11T13:15:32;18.23;;;12.25;;
5819;SDS011;2936;47.348;9.640;2022-12-11T13:18:00;17.50;;;12.32;;
5819;SDS011;2936;47.348;9.640;2022-12-11T13:20:29;15.70;;;10.48;;
5819;SDS011;2936;47.348;9.640;2022-12-11T13:25:52;17.25;;;11.98;;
5819;SDS011;2936;47.348;9.640;2022-12-11T13:28:23;21.75;;;14.63;;
5819;SDS011;2936;47.348;9.640;2022-12-11T13:30:55;25.60;;;17.15;;
5819;SDS011;2936;47.348;9.640;2022-12-11T13:33:23;29.13;;;16.58;;
5819;SDS011;2936;47.348;9.640;2022-12-11T13:36:02;20.83;;;13.43;;
5819;SDS011;2936;47.348;9.640;2022-12-11T13:38:30;22.15;;;14.50;;
5819;SDS011;2936;47.348;9.640;2022-12-11T13:40:59;23.90;;;13.23;;
5819;SDS011;2936;47.348;9.640;2022-12-11T13:43:27;15.85;;;11.55;;
5819;SDS011;2936;47.348;9.640;2022-12-11T13:45:56;21.13;;;13.57;;
5819;SDS011;2936;47.348;9.640;2022-12-11T13:48:26;21.00;;;14.23;;
5819;SDS011;2936;47.348;9.640;2022-12-11T13:50:54;20.00;;;13.35;;
5819;SDS011;2936;47.348;9.640;2022-12-11T13:53:22;20.50;;;13.23;;
5819;SDS011;2936;47.348;9.640;2022-12-11T13:55:56;20.13;;;13.00;;
5819;SDS011;2936;47.348;9.640;2022-12-11T13:58:25;28.73;;;17.10;;
5819;SDS011;2936;47.348;9.640;2022-12-11T14:01:01;27.63;;;16.10;;
5819;SDS011;2936;47.348;9.640;2022-12-11T14:03:30;25.17;;;15.30;;
5819;SDS011;2936;47.348;9.640;2022-12-11T14:05:59;27.67;;;16.98;;
5819;SDS011;2936;47.348;9.640;2022-12-11T14:31:47;29.00;;;17.83;;
5819;SDS011;2936;47.348;9.640;2022-12-11T14:34:16;26.50;;;16.02;;
5819;SDS011;2936;47.348;9.640;2022-12-11T14:48:48;22.08;;;15.55;;
5819;SDS011;2936;47.348;9.640;2022-12-11T14:51:17;22.55;;;15.00;;
5819;SDS011;2936;47.348;9.640;2022-12-11T14:53:45;23.05;;;13.93;;
5819;SDS011;2936;47.348;9.640;2022-12-11T14:56:15;22.77;;;15.00;;
5819;SDS011;2936;47.348;9.640;2022-12-11T14:58:44;23.40;;;14.02;;
5819;SDS011;2936;47.348;9.640;2022-12-11T15:01:20;26.10;;;16.33;;
5819;SDS011;2936;47.348;9.640;2022-12-11T15:03:49;30.80;;;17.38;;
5819;SDS011;2936;47.348;9.640;2022-12-11T15:06:20;22.80;;;14.02;;
5819;SDS011;2936;47.348;9.640;2022-12-11T15:08:49;30.23;;;16.92;;
5819;SDS011;2936;47.348;9.640;2022-12-11T15:11:29;23.20;;;14.18;;
5819;SDS011;2936;47.348;9.640;2022-12-11T15:13:58;23.60;;;14.32;;
5819;SDS011;2936;47.348;9.640;2022-12-11T15:16:26;37.60;;;15.77;;
5819;SDS011;2936;47.348;9.640;2022-12-11T15:18:56;25.30;;;15.35;;
5819;SDS011;2936;47.348;9.640;2022-12-11T15:21:26;28.40;;;16.42;;
5819;SDS011;2936;47.348;9.640;2022-12-11T15:23:55;28.13;;;16.25;;
5819;SDS011;2936;47.348;9.640;2022-12-11T15:26:31;29.67;;;17.50;;
5819;SDS011;2936;47.348;9.640;2022-12-11T15:28:59;32.78;;;17.15;;
5819;SDS011;2936;47.348;9.640;2022-12-11T15:31:27;24.17;;;15.45;;
5819;SDS011;2936;47.348;9.640;2022-12-11T15:33:56;23.58;;;14.70;;
5819;SDS011;2936;47.348;9.640;2022-12-11T15:36:24;20.35;;;13.45;;
5819;SDS011;2936;47.348;9.640;2022-12-11T15:38:52;24.90;;;14.90;;
5819;SDS011;2936;47.348;9.640;2022-12-11T15:41:19;20.67;;;14.80;;
5819;SDS011;2936;47.348;9.640;2022-12-11T15:43:48;22.00;;;14.38;;
5819;SDS011;2936;47.348;9.640;2022-12-11T15:46:16;26.25;;;16.52;;
5819;SDS011;2936;47.348;9.640;2022-12-11T15:48:43;32.40;;;15.73;;
5819;SDS011;2936;47.348;9.640;2022-12-11T15:51:14;21.33;;;14.07;;
5819;SDS011;2936;47.348;9.640;2022-12-11T15:53:42;25.23;;;15.18;;
5819;SDS011;2936;47.348;9.640;2022-12-11T15:56:11;23.88;;;14.95;;
5819;SDS011;2936;47.348;9.640;2022-12-11T15:58:39;20.80;;;14.52;;
5819;SDS011;2936;47.348;9.640;2022-12-11T16:01:07;27.40;;;15.10;;
5819;SDS011;2936;47.348;9.640;2022-12-11T16:03:34;25.50;;;16.00;;
5819;SDS011;2936;47.348;9.640;2022-12-11T16:06:01;29.40;;;17.55;;
5819;SDS011;2936;47.348;9.640;2022-12-11T16:08:30;29.20;;;16.17;;
5819;SDS011;2936;47.348;9.640;2022-12-11T16:10:57;24.48;;;15.63;;
5819;SDS011;2936;47.348;9.640;2022-12-11T16:13:25;26.80;;;15.90;;
5819;SDS011;2936;47.348;9.640;2022-12-11T16:15:52;27.23;;;15.38;;
5819;SDS011;2936;47.348;9.640;2022-12-11T16:18:20;33.80;;;17.05;;
5819;SDS011;2936;47.348;9.640;2022-12-11T16:20:48;26.23;;;18.90;;